sensor_id;sensor_type;location;lat;lon;timestamp;temperature;humidity
56725;DHT22;42608;52.776;6.968;2023-09-12T00:00:07;21.20;99.90
56725;DHT22;42608;52.776;6.968;2023-09-12T00:02:33;21.20;99.90
56725;DHT22;42608;52.776;6.968;2023-09-12T00:04:58;21.20;99.90
56725;DHT22;42608;52.776;6.968;2023-09-12T00:07:24;21.20;99.90
56725;DHT22;42608;52.776;6.968;2023-09-12T00:09:49;21.20;99.90
56725;DHT22;42608;52.776;6.968;2023-09-12T00:12:15;21.20;99.90
56725;DHT22;42608;52.776;6.968;2023-09-12T00:14:41;21.20;99.90
56725;DHT22;42608;52.776;6.968;2023-09-12T00:17:06;21.20;99.90
56725;DHT22;42608;52.776;6.968;2023-09-12T00:19:32;21.20;99.90
56725;DHT22;42608;52.776;6.968;2023-09-12T00:21:58;21.20;99.90
56725;DHT22;42608;52.776;6.968;2023-09-12T00:24:23;21.10;99.90
56725;DHT22;42608;52.776;6.968;2023-09-12T00:26:49;21.10;99.90
56725;DHT22;42608;52.776;6.968;2023-09-12T00:29:15;21.10;99.90
56725;DHT22;42608;52.776;6.968;2023-09-12T00:31:40;21.10;99.90
56725;DHT22;42608;52.776;6.968;2023-09-12T00:34:06;21.10;99.90
56725;DHT22;42608;52.776;6.968;2023-09-12T00:36:31;21.10;99.90
56725;DHT22;42608;52.776;6.968;2023-09-12T00:38:58;21.10;99.90
56725;DHT22;42608;52.776;6.968;2023-09-12T00:41:24;21.10;99.90
56725;DHT22;42608;52.776;6.968;2023-09-12T00:43:49;21.10;99.90
56725;DHT22;42608;52.776;6.968;2023-09-12T00:46:21;21.10;99.90
56725;DHT22;42608;52.776;6.968;2023-09-12T00:48:47;21.10;99.90
56725;DHT22;42608;52.776;6.968;2023-09-12T00:51:14;21.10;99.90
56725;DHT22;42608;52.776;6.968;2023-09-12T00:53:40;21.00;99.90
56725;DHT22;42608;52.776;6.968;2023-09-12T00:56:06;21.00;99.90
56725;DHT22;42608;52.776;6.968;2023-09-12T00:58:31;21.00;99.90
56725;DHT22;42608;52.776;6.968;2023-09-12T01:00:57;21.00;99.90
56725;DHT22;42608;52.776;6.968;2023-09-12T01:03:24;21.00;99.90
56725;DHT22;42608;52.776;6.968;2023-09-12T01:05:49;20.90;99.90
56725;DHT22;42608;52.776;6.968;2023-09-12T01:08:16;20.90;99.90
56725;DHT22;42608;52.776;6.968;2023-09-12T01:10:41;20.80;99.90
56725;DHT22;42608;52.776;6.968;2023-09-12T01:13:11;20.70;99.90
56725;DHT22;42608;52.776;6.968;2023-09-12T01:15:37;20.80;99.90
56725;DHT22;42608;52.776;6.968;2023-09-12T01:18:03;20.80;99.90
56725;DHT22;42608;52.776;6.968;2023-09-12T01:20:30;20.80;99.90
56725;DHT22;42608;52.776;6.968;2023-09-12T01:23:00;20.80;99.90
56725;DHT22;42608;52.776;6.968;2023-09-12T01:28:10;20.70;99.90
56725;DHT22;42608;52.776;6.968;2023-09-12T01:30:39;20.70;99.90
56725;DHT22;42608;52.776;6.968;2023-09-12T01:33:07;20.80;99.90
56725;DHT22;42608;52.776;6.968;2023-09-12T01:35:32;20.80;99.90
56725;DHT22;42608;52.776;6.968;2023-09-12T01:37:58;20.70;99.90
56725;DHT22;42608;52.776;6.968;2023-09-12T01:40:30;20.70;99.90
56725;DHT22;42608;52.776;6.968;2023-09-12T01:42:58;20.70;99.90
56725;DHT22;42608;52.776;6.968;2023-09-12T01:45:34;20.70;99.90
56725;DHT22;42608;52.776;6.968;2023-09-12T01:48:00;20.70;99.90
56725;DHT22;42608;52.776;6.968;2023-09-12T01:50:26;20.70;99.90
56725;DHT22;42608;52.776;6.968;2023-09-12T01:52:55;20.70;99.90
56725;DHT22;42608;52.776;6.968;2023-09-12T01:55:21;20.70;99.90
56725;DHT22;42608;52.776;6.968;2023-09-12T01:57:47;20.70;99.90
56725;DHT22;42608;52.776;6.968;2023-09-12T02:00:13;20.60;99.90
56725;DHT22;42608;52.776;6.968;2023-09-12T02:02:39;20.60;99.90
56725;DHT22;42608;52.776;6.968;2023-09-12T02:05:11;20.60;99.90
56725;DHT22;42608;52.776;6.968;2023-09-12T02:07:39;20.60;99.90
56725;DHT22;42608;52.776;6.968;2023-09-12T02:10:05;20.60;99.90
56725;DHT22;42608;52.776;6.968;2023-09-12T02:12:31;20.60;99.90
56725;DHT22;42608;52.776;6.968;2023-09-12T02:14:59;20.60;99.90
56725;DHT22;42608;52.776;6.968;2023-09-12T02:17:25;20.60;99.90
56725;DHT22;42608;52.776;6.968;2023-09-12T02:19:50;20.50;99.90
56725;DHT22;42608;52.776;6.968;2023-09-12T02:22:16;20.50;99.90
56725;DHT22;42608;52.776;6.968;2023-09-12T02:24:41;20.50;99.90
56725;DHT22;42608;52.776;6.968;2023-09-12T02:27:07;20.40;99.90
56725;DHT22;42608;52.776;6.968;2023-09-12T02:29:33;20.40;99.90
56725;DHT22;42608;52.776;6.968;2023-09-12T02:31:59;20.40;99.90
56725;DHT22;42608;52.776;6.968;2023-09-12T02:34:25;20.40;99.90
56725;DHT22;42608;52.776;6.968;2023-09-12T02:36:50;20.30;99.90
56725;DHT22;42608;52.776;6.968;2023-09-12T02:39:16;20.30;99.90
56725;DHT22;42608;52.776;6.968;2023-09-12T02:41:42;20.20;99.90
56725;DHT22;42608;52.776;6.968;2023-09-12T02:44:07;20.20;99.90
56725;DHT22;42608;52.776;6.968;2023-09-12T02:46:33;20.20;99.90
56725;DHT22;42608;52.776;6.968;2023-09-12T02:48:59;20.20;99.90
56725;DHT22;42608;52.776;6.968;2023-09-12T02:51:27;20.10;99.90
56725;DHT22;42608;52.776;6.968;2023-09-12T02:53:53;20.10;99.90
56725;DHT22;42608;52.776;6.968;2023-09-12T02:56:19;20.10;99.90
56725;DHT22;42608;52.776;6.968;2023-09-12T02:58:47;20.10;99.90
56725;DHT22;42608;52.776;6.968;2023-09-12T03:01:16;20.10;99.90
56725;DHT22;42608;52.776;6.968;2023-09-12T03:03:42;20.00;99.90
56725;DHT22;42608;52.776;6.968;2023-09-12T03:06:09;20.00;99.90
56725;DHT22;42608;52.776;6.968;2023-09-12T03:08:35;20.00;99.90
56725;DHT22;42608;52.776;6.968;2023-09-12T03:11:00;20.00;99.90
56725;DHT22;42608;52.776;6.968;2023-09-12T03:13:28;20.00;99.90
56725;DHT22;42608;52.776;6.968;2023-09-12T03:15:53;20.00;99.90
56725;DHT22;42608;52.776;6.968;2023-09-12T03:18:19;20.00;99.90
56725;DHT22;42608;52.776;6.968;2023-09-12T03:20:45;20.10;99.90
56725;DHT22;42608;52.776;6.968;2023-09-12T03:23:10;20.00;99.90
56725;DHT22;42608;52.776;6.968;2023-09-12T03:25:36;20.10;99.90
56725;DHT22;42608;52.776;6.968;2023-09-12T03:28:06;20.10;99.90
56725;DHT22;42608;52.776;6.968;2023-09-12T03:30:35;20.00;99.90
56725;DHT22;42608;52.776;6.968;2023-09-12T03:33:01;20.00;99.90
56725;DHT22;42608;52.776;6.968;2023-09-12T03:35:28;20.00;99.90
56725;DHT22;42608;52.776;6.968;2023-09-12T03:37:53;20.00;99.90
56725;DHT22;42608;52.776;6.968;2023-09-12T03:40:19;19.90;99.90
56725;DHT22;42608;52.776;6.968;2023-09-12T03:42:45;19.90;99.90
56725;DHT22;42608;52.776;6.968;2023-09-12T03:45:10;19.90;99.90
56725;DHT22;42608;52.776;6.968;2023-09-12T03:47:36;19.90;99.90
56725;DHT22;42608;52.776;6.968;2023-09-12T03:50:02;19.90;99.90
56725;DHT22;42608;52.776;6.968;2023-09-12T03:52:28;19.90;99.90
56725;DHT22;42608;52.776;6.968;2023-09-12T03:54:53;19.80;99.90
56725;DHT22;42608;52.776;6.968;2023-09-12T03:57:19;19.80;99.90
56725;DHT22;42608;52.776;6.968;2023-09-12T03:59:44;19.80;99.90
56725;DHT22;42608;52.776;6.968;2023-09-12T04:02:12;19.80;99.90
56725;DHT22;42608;52.776;6.968;2023-09-12T04:04:37;19.80;99.90
56725;DHT22;42608;52.776;6.968;2023-09-12T04:07:03;19.70;99.90
56725;DHT22;42608;52.776;6.968;2023-09-12T04:09:29;19.60;99.90
56725;DHT22;42608;52.776;6.968;2023-09-12T04:11:54;19.60;99.90
56725;DHT22;42608;52.776;6.968;2023-09-12T04:14:20;19.60;99.90
56725;DHT22;42608;52.776;6.968;2023-09-12T04:16:46;19.60;99.90
56725;DHT22;42608;52.776;6.968;2023-09-12T04:19:12;19.60;99.90
56725;DHT22;42608;52.776;6.968;2023-09-12T04:21:37;19.60;99.90
56725;DHT22;42608;52.776;6.968;2023-09-12T04:24:03;19.60;99.90
56725;DHT22;42608;52.776;6.968;2023-09-12T04:26:28;19.60;99.90
56725;DHT22;42608;52.776;6.968;2023-09-12T04:28:54;19.70;99.90
56725;DHT22;42608;52.776;6.968;2023-09-12T04:31:19;19.70;99.90
56725;DHT22;42608;52.776;6.968;2023-09-12T04:33:45;19.70;99.90
56725;DHT22;42608;52.776;6.968;2023-09-12T04:36:11;19.70;99.90
56725;DHT22;42608;52.776;6.968;2023-09-12T04:38:36;19.70;99.90
56725;DHT22;42608;52.776;6.968;2023-09-12T04:41:02;19.70;99.90
56725;DHT22;42608;52.776;6.968;2023-09-12T04:43:30;19.70;99.90
56725;DHT22;42608;52.776;6.968;2023-09-12T04:45:56;19.70;99.90
56725;DHT22;42608;52.776;6.968;2023-09-12T04:48:24;19.70;99.90
56725;DHT22;42608;52.776;6.968;2023-09-12T04:50:50;19.70;99.90
56725;DHT22;42608;52.776;6.968;2023-09-12T04:53:16;19.70;99.90
56725;DHT22;42608;52.776;6.968;2023-09-12T04:55:41;19.70;99.90
56725;DHT22;42608;52.776;6.968;2023-09-12T04:58:07;19.70;99.90
56725;DHT22;42608;52.776;6.968;2023-09-12T05:00:33;19.70;99.90
56725;DHT22;42608;52.776;6.968;2023-09-12T05:02:59;19.70;99.90
56725;DHT22;42608;52.776;6.968;2023-09-12T05:05:24;19.70;99.90
56725;DHT22;42608;52.776;6.968;2023-09-12T05:07:53;19.60;99.90
56725;DHT22;42608;52.776;6.968;2023-09-12T05:10:18;19.60;99.90
56725;DHT22;42608;52.776;6.968;2023-09-12T05:12:44;19.60;99.90
56725;DHT22;42608;52.776;6.968;2023-09-12T05:15:10;19.60;99.90
56725;DHT22;42608;52.776;6.968;2023-09-12T05:17:35;19.60;99.90
56725;DHT22;42608;52.776;6.968;2023-09-12T05:20:02;19.60;99.90
56725;DHT22;42608;52.776;6.968;2023-09-12T05:22:27;19.60;99.90
56725;DHT22;42608;52.776;6.968;2023-09-12T05:24:54;19.60;99.90
56725;DHT22;42608;52.776;6.968;2023-09-12T05:27:19;19.60;99.90
56725;DHT22;42608;52.776;6.968;2023-09-12T05:29:45;19.60;99.90
56725;DHT22;42608;52.776;6.968;2023-09-12T05:32:10;19.60;99.90
56725;DHT22;42608;52.776;6.968;2023-09-12T05:34:36;19.50;99.90
56725;DHT22;42608;52.776;6.968;2023-09-12T05:37:02;19.50;99.90
56725;DHT22;42608;52.776;6.968;2023-09-12T05:39:28;19.50;99.90
56725;DHT22;42608;52.776;6.968;2023-09-12T05:41:53;19.50;99.90
56725;DHT22;42608;52.776;6.968;2023-09-12T05:44:19;19.50;99.90
56725;DHT22;42608;52.776;6.968;2023-09-12T05:46:48;19.50;99.90
56725;DHT22;42608;52.776;6.968;2023-09-12T05:49:14;19.60;99.90
56725;DHT22;42608;52.776;6.968;2023-09-12T05:51:40;19.50;99.90
56725;DHT22;42608;52.776;6.968;2023-09-12T05:54:06;19.50;99.90
56725;DHT22;42608;52.776;6.968;2023-09-12T05:56:31;19.50;99.90
56725;DHT22;42608;52.776;6.968;2023-09-12T05:58:57;19.50;99.90
56725;DHT22;42608;52.776;6.968;2023-09-12T06:01:22;19.50;99.90
56725;DHT22;42608;52.776;6.968;2023-09-12T06:03:48;19.50;99.90
56725;DHT22;42608;52.776;6.968;2023-09-12T06:06:14;19.60;99.90
56725;DHT22;42608;52.776;6.968;2023-09-12T06:08:39;19.50;99.90
56725;DHT22;42608;52.776;6.968;2023-09-12T06:11:05;19.60;99.90
56725;DHT22;42608;52.776;6.968;2023-09-12T06:13:30;19.60;99.90
56725;DHT22;42608;52.776;6.968;2023-09-12T06:15:58;19.60;99.90
56725;DHT22;42608;52.776;6.968;2023-09-12T06:18:23;19.60;99.90
56725;DHT22;42608;52.776;6.968;2023-09-12T06:20:49;19.60;99.90
56725;DHT22;42608;52.776;6.968;2023-09-12T06:23:15;19.60;99.90
56725;DHT22;42608;52.776;6.968;2023-09-12T06:25:40;19.60;99.90
56725;DHT22;42608;52.776;6.968;2023-09-12T06:28:08;19.60;99.90
56725;DHT22;42608;52.776;6.968;2023-09-12T06:30:34;19.60;99.90
56725;DHT22;42608;52.776;6.968;2023-09-12T06:33:00;19.60;99.90
56725;DHT22;42608;52.776;6.968;2023-09-12T06:35:26;19.50;99.90
56725;DHT22;42608;52.776;6.968;2023-09-12T06:37:52;19.50;99.90
56725;DHT22;42608;52.776;6.968;2023-09-12T06:40:19;19.50;99.90
56725;DHT22;42608;52.776;6.968;2023-09-12T06:42:44;19.50;99.90
56725;DHT22;42608;52.776;6.968;2023-09-12T06:45:10;19.50;99.90
56725;DHT22;42608;52.776;6.968;2023-09-12T06:47:35;19.50;99.90
56725;DHT22;42608;52.776;6.968;2023-09-12T06:50:04;19.50;99.90
56725;DHT22;42608;52.776;6.968;2023-09-12T06:52:30;19.50;99.90
56725;DHT22;42608;52.776;6.968;2023-09-12T06:54:55;19.40;99.90
56725;DHT22;42608;52.776;6.968;2023-09-12T06:57:21;19.50;99.90
56725;DHT22;42608;52.776;6.968;2023-09-12T06:59:46;19.50;99.90
56725;DHT22;42608;52.776;6.968;2023-09-12T07:02:14;19.50;99.90
56725;DHT22;42608;52.776;6.968;2023-09-12T07:04:40;19.60;99.90
56725;DHT22;42608;52.776;6.968;2023-09-12T07:07:05;19.60;99.90
56725;DHT22;42608;52.776;6.968;2023-09-12T07:09:31;19.60;99.90
56725;DHT22;42608;52.776;6.968;2023-09-12T07:11:56;19.60;99.90
56725;DHT22;42608;52.776;6.968;2023-09-12T07:14:22;19.60;99.90
56725;DHT22;42608;52.776;6.968;2023-09-12T07:16:49;19.60;99.90
56725;DHT22;42608;52.776;6.968;2023-09-12T07:19:14;19.60;99.90
56725;DHT22;42608;52.776;6.968;2023-09-12T07:21:40;19.50;99.90
56725;DHT22;42608;52.776;6.968;2023-09-12T07:24:06;19.50;99.90
56725;DHT22;42608;52.776;6.968;2023-09-12T07:26:32;19.50;99.90
56725;DHT22;42608;52.776;6.968;2023-09-12T07:28:57;19.50;99.90
56725;DHT22;42608;52.776;6.968;2023-09-12T07:31:23;19.50;99.90
56725;DHT22;42608;52.776;6.968;2023-09-12T07:33:49;19.50;99.90
56725;DHT22;42608;52.776;6.968;2023-09-12T07:36:14;19.50;99.90
56725;DHT22;42608;52.776;6.968;2023-09-12T07:38:40;19.50;99.90
56725;DHT22;42608;52.776;6.968;2023-09-12T07:41:07;19.50;99.90
56725;DHT22;42608;52.776;6.968;2023-09-12T07:43:32;19.40;99.90
56725;DHT22;42608;52.776;6.968;2023-09-12T07:46:00;19.40;99.90
56725;DHT22;42608;52.776;6.968;2023-09-12T07:48:26;19.40;99.90
56725;DHT22;42608;52.776;6.968;2023-09-12T07:50:53;19.40;99.90
56725;DHT22;42608;52.776;6.968;2023-09-12T07:53:19;19.40;99.90
56725;DHT22;42608;52.776;6.968;2023-09-12T07:55:44;19.40;99.90
56725;DHT22;42608;52.776;6.968;2023-09-12T07:58:12;19.50;99.90
56725;DHT22;42608;52.776;6.968;2023-09-12T08:00:37;19.50;99.90
56725;DHT22;42608;52.776;6.968;2023-09-12T08:03:03;19.50;99.90
56725;DHT22;42608;52.776;6.968;2023-09-12T08:05:29;19.50;99.90
56725;DHT22;42608;52.776;6.968;2023-09-12T08:07:54;19.50;99.90
56725;DHT22;42608;52.776;6.968;2023-09-12T08:10:20;19.60;99.90
56725;DHT22;42608;52.776;6.968;2023-09-12T08:12:46;19.60;99.90
56725;DHT22;42608;52.776;6.968;2023-09-12T08:15:11;19.60;99.90
56725;DHT22;42608;52.776;6.968;2023-09-12T08:17:37;19.60;99.90
56725;DHT22;42608;52.776;6.968;2023-09-12T08:20:03;19.70;99.90
56725;DHT22;42608;52.776;6.968;2023-09-12T08:22:29;19.70;99.90
56725;DHT22;42608;52.776;6.968;2023-09-12T08:24:55;19.70;99.90
56725;DHT22;42608;52.776;6.968;2023-09-12T08:27:20;19.80;99.90
56725;DHT22;42608;52.776;6.968;2023-09-12T08:29:46;19.80;99.90
56725;DHT22;42608;52.776;6.968;2023-09-12T08:32:13;19.80;99.90
56725;DHT22;42608;52.776;6.968;2023-09-12T08:34:39;19.90;99.90
56725;DHT22;42608;52.776;6.968;2023-09-12T08:37:04;19.90;99.90
56725;DHT22;42608;52.776;6.968;2023-09-12T08:39:40;19.90;99.90
56725;DHT22;42608;52.776;6.968;2023-09-12T08:42:06;19.90;99.90
56725;DHT22;42608;52.776;6.968;2023-09-12T08:44:32;19.90;99.90
56725;DHT22;42608;52.776;6.968;2023-09-12T08:46:58;19.90;99.90
56725;DHT22;42608;52.776;6.968;2023-09-12T08:49:24;20.00;99.90
56725;DHT22;42608;52.776;6.968;2023-09-12T08:51:50;20.00;99.90
56725;DHT22;42608;52.776;6.968;2023-09-12T08:54:16;20.00;99.90
56725;DHT22;42608;52.776;6.968;2023-09-12T08:56:41;20.00;99.90
56725;DHT22;42608;52.776;6.968;2023-09-12T08:59:08;20.00;99.90
56725;DHT22;42608;52.776;6.968;2023-09-12T09:01:35;20.10;99.90
56725;DHT22;42608;52.776;6.968;2023-09-12T09:04:02;20.10;99.90
56725;DHT22;42608;52.776;6.968;2023-09-12T09:06:31;20.10;99.90
56725;DHT22;42608;52.776;6.968;2023-09-12T09:09:00;20.10;99.90
56725;DHT22;42608;52.776;6.968;2023-09-12T09:11:27;20.20;99.90
56725;DHT22;42608;52.776;6.968;2023-09-12T09:13:54;20.20;99.90
56725;DHT22;42608;52.776;6.968;2023-09-12T09:16:20;20.20;99.90
56725;DHT22;42608;52.776;6.968;2023-09-12T09:18:50;20.20;99.90
56725;DHT22;42608;52.776;6.968;2023-09-12T09:21:19;20.20;99.90
56725;DHT22;42608;52.776;6.968;2023-09-12T09:23:46;20.30;99.90
56725;DHT22;42608;52.776;6.968;2023-09-12T09:26:12;20.30;99.90
56725;DHT22;42608;52.776;6.968;2023-09-12T09:28:38;20.30;99.90
56725;DHT22;42608;52.776;6.968;2023-09-12T09:31:13;20.30;99.90
56725;DHT22;42608;52.776;6.968;2023-09-12T09:33:39;20.30;99.90
56725;DHT22;42608;52.776;6.968;2023-09-12T09:36:06;20.30;99.90
56725;DHT22;42608;52.776;6.968;2023-09-12T09:38:32;20.40;99.90
56725;DHT22;42608;52.776;6.968;2023-09-12T09:40:59;20.40;99.90
56725;DHT22;42608;52.776;6.968;2023-09-12T09:43:25;20.40;99.90
56725;DHT22;42608;52.776;6.968;2023-09-12T09:45:50;20.40;99.90
56725;DHT22;42608;52.776;6.968;2023-09-12T09:48:19;20.50;99.90
56725;DHT22;42608;52.776;6.968;2023-09-12T09:50:45;20.50;99.90
56725;DHT22;42608;52.776;6.968;2023-09-12T09:53:11;20.50;99.90
56725;DHT22;42608;52.776;6.968;2023-09-12T09:55:36;20.60;99.90
56725;DHT22;42608;52.776;6.968;2023-09-12T09:58:02;20.60;99.90
56725;DHT22;42608;52.776;6.968;2023-09-12T10:00:28;20.60;99.90
56725;DHT22;42608;52.776;6.968;2023-09-12T10:02:54;20.70;99.90
56725;DHT22;42608;52.776;6.968;2023-09-12T10:05:20;20.60;99.90
56725;DHT22;42608;52.776;6.968;2023-09-12T10:07:47;20.70;99.90
56725;DHT22;42608;52.776;6.968;2023-09-12T10:10:14;20.70;99.90
56725;DHT22;42608;52.776;6.968;2023-09-12T10:12:43;20.70;99.90
56725;DHT22;42608;52.776;6.968;2023-09-12T10:15:09;20.70;99.90
56725;DHT22;42608;52.776;6.968;2023-09-12T10:17:36;20.70;99.90
56725;DHT22;42608;52.776;6.968;2023-09-12T10:20:02;20.70;99.90
56725;DHT22;42608;52.776;6.968;2023-09-12T10:22:39;20.80;99.90
56725;DHT22;42608;52.776;6.968;2023-09-12T10:25:05;20.80;99.90
56725;DHT22;42608;52.776;6.968;2023-09-12T10:27:31;20.90;99.90
56725;DHT22;42608;52.776;6.968;2023-09-12T10:29:58;20.90;99.90
56725;DHT22;42608;52.776;6.968;2023-09-12T10:32:25;20.90;99.90
56725;DHT22;42608;52.776;6.968;2023-09-12T10:34:52;21.00;99.90
56725;DHT22;42608;52.776;6.968;2023-09-12T10:37:19;21.10;99.90
56725;DHT22;42608;52.776;6.968;2023-09-12T10:39:45;21.10;99.90
56725;DHT22;42608;52.776;6.968;2023-09-12T10:42:11;21.20;99.90
56725;DHT22;42608;52.776;6.968;2023-09-12T10:44:38;21.30;99.90
56725;DHT22;42608;52.776;6.968;2023-09-12T10:47:04;21.30;99.90
56725;DHT22;42608;52.776;6.968;2023-09-12T10:49:30;21.40;99.90
56725;DHT22;42608;52.776;6.968;2023-09-12T10:51:56;21.50;99.90
56725;DHT22;42608;52.776;6.968;2023-09-12T10:54:36;21.50;99.90
56725;DHT22;42608;52.776;6.968;2023-09-12T10:57:08;21.60;99.90
56725;DHT22;42608;52.776;6.968;2023-09-12T10:59:36;21.60;99.90
56725;DHT22;42608;52.776;6.968;2023-09-12T11:04:46;21.60;99.90
56725;DHT22;42608;52.776;6.968;2023-09-12T11:12:41;21.70;99.90
56725;DHT22;42608;52.776;6.968;2023-09-12T11:15:07;21.70;99.90
56725;DHT22;42608;52.776;6.968;2023-09-12T11:17:40;21.70;99.90
56725;DHT22;42608;52.776;6.968;2023-09-12T11:20:06;21.80;99.90
56725;DHT22;42608;52.776;6.968;2023-09-12T11:22:39;21.80;99.90
56725;DHT22;42608;52.776;6.968;2023-09-12T11:25:15;21.80;99.90
56725;DHT22;42608;52.776;6.968;2023-09-12T11:27:45;21.80;99.90
56725;DHT22;42608;52.776;6.968;2023-09-12T11:30:11;21.90;99.90
56725;DHT22;42608;52.776;6.968;2023-09-12T11:32:37;22.00;99.90
56725;DHT22;42608;52.776;6.968;2023-09-12T11:35:07;22.10;99.90
56725;DHT22;42608;52.776;6.968;2023-09-12T11:37:32;22.20;99.90
56725;DHT22;42608;52.776;6.968;2023-09-12T11:39:58;22.30;99.90
56725;DHT22;42608;52.776;6.968;2023-09-12T11:42:24;22.30;99.90
56725;DHT22;42608;52.776;6.968;2023-09-12T11:44:53;22.40;99.90
56725;DHT22;42608;52.776;6.968;2023-09-12T11:47:18;22.40;99.90
56725;DHT22;42608;52.776;6.968;2023-09-12T11:49:45;22.40;99.90
56725;DHT22;42608;52.776;6.968;2023-09-12T11:52:11;22.50;99.90
56725;DHT22;42608;52.776;6.968;2023-09-12T11:54:38;22.60;99.90
56725;DHT22;42608;52.776;6.968;2023-09-12T11:57:04;22.60;99.90
56725;DHT22;42608;52.776;6.968;2023-09-12T11:59:30;22.70;99.90
56725;DHT22;42608;52.776;6.968;2023-09-12T12:01:55;22.70;99.90
56725;DHT22;42608;52.776;6.968;2023-09-12T12:04:21;22.70;99.90
56725;DHT22;42608;52.776;6.968;2023-09-12T12:06:48;22.80;99.90
56725;DHT22;42608;52.776;6.968;2023-09-12T12:09:13;22.80;99.90
56725;DHT22;42608;52.776;6.968;2023-09-12T12:11:41;22.80;99.90
56725;DHT22;42608;52.776;6.968;2023-09-12T12:14:09;22.80;99.90
56725;DHT22;42608;52.776;6.968;2023-09-12T12:16:34;22.80;99.90
56725;DHT22;42608;52.776;6.968;2023-09-12T12:19:00;22.90;99.90
56725;DHT22;42608;52.776;6.968;2023-09-12T12:21:25;22.90;99.90
56725;DHT22;42608;52.776;6.968;2023-09-12T12:24:02;22.90;99.90
56725;DHT22;42608;52.776;6.968;2023-09-12T12:26:29;22.90;99.90
56725;DHT22;42608;52.776;6.968;2023-09-12T12:28:55;23.00;99.90
56725;DHT22;42608;52.776;6.968;2023-09-12T12:31:22;23.10;99.90
56725;DHT22;42608;52.776;6.968;2023-09-12T12:33:52;23.10;99.90
56725;DHT22;42608;52.776;6.968;2023-09-12T12:36:18;23.10;99.90
56725;DHT22;42608;52.776;6.968;2023-09-12T12:38:45;23.20;99.90
56725;DHT22;42608;52.776;6.968;2023-09-12T12:41:12;23.20;99.90
56725;DHT22;42608;52.776;6.968;2023-09-12T12:43:41;23.20;99.90
56725;DHT22;42608;52.776;6.968;2023-09-12T12:46:10;23.20;99.90
56725;DHT22;42608;52.776;6.968;2023-09-12T12:48:35;23.20;99.90
56725;DHT22;42608;52.776;6.968;2023-09-12T12:51:13;23.30;99.90
56725;DHT22;42608;52.776;6.968;2023-09-12T12:53:43;23.30;99.90
56725;DHT22;42608;52.776;6.968;2023-09-12T12:56:11;23.40;99.90
56725;DHT22;42608;52.776;6.968;2023-09-12T12:58:37;23.50;99.90
56725;DHT22;42608;52.776;6.968;2023-09-12T13:01:03;23.50;99.90
56725;DHT22;42608;52.776;6.968;2023-09-12T13:03:28;23.60;99.90
56725;DHT22;42608;52.776;6.968;2023-09-12T13:05:54;23.70;99.90
56725;DHT22;42608;52.776;6.968;2023-09-12T13:08:19;23.80;99.90
56725;DHT22;42608;52.776;6.968;2023-09-12T13:10:45;23.90;99.90
56725;DHT22;42608;52.776;6.968;2023-09-12T13:13:10;24.00;99.90
56725;DHT22;42608;52.776;6.968;2023-09-12T13:15:36;24.10;99.90
56725;DHT22;42608;52.776;6.968;2023-09-12T13:18:02;24.10;99.90
56725;DHT22;42608;52.776;6.968;2023-09-12T13:20:29;24.10;99.90
56725;DHT22;42608;52.776;6.968;2023-09-12T13:22:54;24.10;99.90
56725;DHT22;42608;52.776;6.968;2023-09-12T13:25:21;24.20;99.90
56725;DHT22;42608;52.776;6.968;2023-09-12T13:27:49;24.20;99.90
56725;DHT22;42608;52.776;6.968;2023-09-12T13:30:14;24.30;99.90
56725;DHT22;42608;52.776;6.968;2023-09-12T13:32:40;24.40;99.90
56725;DHT22;42608;52.776;6.968;2023-09-12T13:35:06;24.40;99.90
56725;DHT22;42608;52.776;6.968;2023-09-12T13:37:33;24.40;99.90
56725;DHT22;42608;52.776;6.968;2023-09-12T13:39:58;24.40;99.90
56725;DHT22;42608;52.776;6.968;2023-09-12T13:42:24;24.40;99.90
56725;DHT22;42608;52.776;6.968;2023-09-12T13:44:53;24.40;99.90
56725;DHT22;42608;52.776;6.968;2023-09-12T13:47:19;24.40;99.90
56725;DHT22;42608;52.776;6.968;2023-09-12T13:49:48;24.50;99.90
56725;DHT22;42608;52.776;6.968;2023-09-12T13:52:13;24.60;99.90
56725;DHT22;42608;52.776;6.968;2023-09-12T13:54:42;24.70;99.90
56725;DHT22;42608;52.776;6.968;2023-09-12T13:57:07;24.80;99.90
56725;DHT22;42608;52.776;6.968;2023-09-12T13:59:33;24.80;99.90
56725;DHT22;42608;52.776;6.968;2023-09-12T14:01:58;24.90;99.90
56725;DHT22;42608;52.776;6.968;2023-09-12T14:04:24;24.90;99.90
56725;DHT22;42608;52.776;6.968;2023-09-12T14:06:50;24.90;99.90
56725;DHT22;42608;52.776;6.968;2023-09-12T14:09:15;24.90;99.90
56725;DHT22;42608;52.776;6.968;2023-09-12T14:11:41;25.00;99.90
56725;DHT22;42608;52.776;6.968;2023-09-12T14:14:07;24.90;99.90
56725;DHT22;42608;52.776;6.968;2023-09-12T14:16:32;24.90;99.90
56725;DHT22;42608;52.776;6.968;2023-09-12T14:18:58;24.80;99.90
56725;DHT22;42608;52.776;6.968;2023-09-12T14:21:24;24.80;99.90
56725;DHT22;42608;52.776;6.968;2023-09-12T14:23:49;24.80;99.90
56725;DHT22;42608;52.776;6.968;2023-09-12T14:26:15;24.80;99.90
56725;DHT22;42608;52.776;6.968;2023-09-12T14:28:40;24.80;99.90
56725;DHT22;42608;52.776;6.968;2023-09-12T14:31:06;24.80;99.90
56725;DHT22;42608;52.776;6.968;2023-09-12T14:33:38;24.80;99.90
56725;DHT22;42608;52.776;6.968;2023-09-12T14:36:05;24.70;99.90
56725;DHT22;42608;52.776;6.968;2023-09-12T14:38:31;24.70;99.90
56725;DHT22;42608;52.776;6.968;2023-09-12T14:40:56;24.60;99.90
56725;DHT22;42608;52.776;6.968;2023-09-12T14:43:22;24.50;99.90
56725;DHT22;42608;52.776;6.968;2023-09-12T14:45:48;24.40;99.90
56725;DHT22;42608;52.776;6.968;2023-09-12T14:48:14;24.40;99.90
56725;DHT22;42608;52.776;6.968;2023-09-12T14:50:40;24.30;99.90
56725;DHT22;42608;52.776;6.968;2023-09-12T14:53:06;24.30;99.90
56725;DHT22;42608;52.776;6.968;2023-09-12T14:55:32;24.30;99.90
56725;DHT22;42608;52.776;6.968;2023-09-12T14:57:57;24.30;99.90
56725;DHT22;42608;52.776;6.968;2023-09-12T15:00:24;24.30;99.90
56725;DHT22;42608;52.776;6.968;2023-09-12T15:02:50;24.30;99.90
56725;DHT22;42608;52.776;6.968;2023-09-12T15:05:15;24.20;99.90
56725;DHT22;42608;52.776;6.968;2023-09-12T15:07:41;24.20;99.90
56725;DHT22;42608;52.776;6.968;2023-09-12T15:10:07;24.20;99.90
56725;DHT22;42608;52.776;6.968;2023-09-12T15:12:32;24.20;99.90
56725;DHT22;42608;52.776;6.968;2023-09-12T15:14:58;24.10;99.90
56725;DHT22;42608;52.776;6.968;2023-09-12T15:17:24;24.10;99.90
56725;DHT22;42608;52.776;6.968;2023-09-12T15:19:50;24.10;99.90
56725;DHT22;42608;52.776;6.968;2023-09-12T15:22:15;24.10;99.90
56725;DHT22;42608;52.776;6.968;2023-09-12T15:24:41;24.10;99.90
56725;DHT22;42608;52.776;6.968;2023-09-12T15:27:06;24.00;99.90
56725;DHT22;42608;52.776;6.968;2023-09-12T15:29:32;24.00;99.90
56725;DHT22;42608;52.776;6.968;2023-09-12T15:31:58;24.00;99.90
56725;DHT22;42608;52.776;6.968;2023-09-12T15:34:25;23.90;99.90